createdAt,value
2019-05-18T00:01:55.619Z,88.10
2019-05-18T00:04:24.812Z,87.80
2019-05-18T00:06:53.955Z,87.70
2019-05-18T00:09:23.102Z,87.50
2019-05-18T00:11:52.253Z,87.20
2019-05-18T00:14:21.395Z,87.00
2019-05-18T00:16:50.553Z,86.40
2019-05-18T00:19:19.689Z,85.80
2019-05-18T00:21:48.832Z,85.60
2019-05-18T00:24:18.436Z,85.80
2019-05-18T00:26:47.587Z,84.40
2019-05-18T00:29:16.742Z,84.70
2019-05-18T00:31:45.891Z,83.60
2019-05-18T00:34:15.030Z,84.40
2019-05-18T00:36:44.192Z,84.40
2019-05-18T00:39:13.403Z,84.30
2019-05-18T00:41:45.381Z,83.60
2019-05-18T00:44:13.429Z,83.60
2019-05-18T00:46:42.587Z,84.20
2019-05-18T00:49:11.721Z,84.10
2019-05-18T00:51:40.876Z,84.20
2019-05-18T00:54:10.062Z,84.00
2019-05-18T00:56:39.215Z,84.10
2019-05-18T00:59:08.400Z,84.20
2019-05-18T01:01:37.533Z,84.40
2019-05-18T01:04:06.709Z,83.80
2019-05-18T01:06:35.849Z,83.90
2019-05-18T01:09:06.945Z,83.70
2019-05-18T01:11:36.123Z,83.70
2019-05-18T01:14:05.312Z,83.40
2019-05-18T01:16:34.414Z,83.40
2019-05-18T01:19:03.561Z,83.50
2019-05-18T01:21:32.725Z,83.30
2019-05-18T01:24:01.904Z,83.20
2019-05-18T01:26:31.130Z,82.80
2019-05-18T01:29:03.528Z,83.00
2019-05-18T01:31:34.409Z,83.00
2019-05-18T01:34:03.553Z,83.00
2019-05-18T01:36:32.698Z,83.10
2019-05-18T01:39:01.882Z,83.00
2019-05-18T01:41:31.874Z,82.90
2019-05-18T01:44:00.993Z,83.00
2019-05-18T01:46:30.145Z,82.80
2019-05-18T01:48:59.336Z,83.80
2019-05-18T01:51:28.478Z,82.70
2019-05-18T01:53:57.605Z,82.80
2019-05-18T01:56:26.777Z,82.80
2019-05-18T01:58:55.926Z,82.60
2019-05-18T02:01:25.147Z,82.60
2019-05-18T02:03:54.321Z,82.80
2019-05-18T02:06:23.469Z,82.90
2019-05-18T02:08:52.616Z,82.80
2019-05-18T02:11:21.770Z,82.90
2019-05-18T02:13:50.941Z,82.70
2019-05-18T02:16:20.097Z,82.80
2019-05-18T02:18:49.636Z,82.70
2019-05-18T02:21:18.763Z,82.80
2019-05-18T02:23:47.925Z,82.80
2019-05-18T02:26:17.072Z,82.60
2019-05-18T02:28:46.222Z,82.70
2019-05-18T02:31:15.453Z,82.70
2019-05-18T02:33:44.582Z,82.70
2019-05-18T02:36:13.731Z,82.50
2019-05-18T02:38:42.891Z,82.60
2019-05-18T02:41:12.084Z,82.50
2019-05-18T02:43:41.238Z,82.50
2019-05-18T02:46:10.365Z,82.50
2019-05-18T02:48:49.600Z,82.60
2019-05-18T02:51:11.664Z,82.50
2019-05-18T02:53:41.117Z,82.50
2019-05-18T02:56:10.627Z,82.50
2019-05-18T02:58:39.770Z,82.40
2019-05-18T03:01:08.924Z,82.50
2019-05-18T03:03:38.085Z,82.30
2019-05-18T03:06:07.701Z,82.40
2019-05-18T03:08:36.834Z,82.30
2019-05-18T03:11:06.292Z,82.50
2019-05-18T03:13:35.455Z,82.50
2019-05-18T03:16:04.597Z,82.50
2019-05-18T03:18:33.777Z,82.30
2019-05-18T03:21:02.928Z,82.30
2019-05-18T03:23:32.108Z,82.50
2019-05-18T03:26:01.254Z,82.40
2019-05-18T03:28:30.384Z,82.30
2019-05-18T03:30:59.541Z,82.40
2019-05-18T03:33:30.244Z,82.40
2019-05-18T03:35:59.543Z,82.40
2019-05-18T03:38:28.689Z,82.40
2019-05-18T03:40:57.831Z,82.40
2019-05-18T03:43:27.222Z,82.30
2019-05-18T03:45:56.369Z,82.20
2019-05-18T03:48:25.522Z,82.30
2019-05-18T03:50:54.668Z,82.40
2019-05-18T03:53:23.807Z,82.30
2019-05-18T03:55:52.988Z,82.30
2019-05-18T03:58:22.122Z,82.20
2019-05-18T04:00:51.268Z,82.10
2019-05-18T04:03:20.421Z,82.00
2019-05-18T04:05:49.561Z,82.10
2019-05-18T04:08:18.737Z,82.00
2019-05-18T04:10:47.874Z,82.00
2019-05-18T04:13:17.149Z,82.00
2019-05-18T04:15:46.337Z,81.80
2019-05-18T04:18:15.466Z,82.00
2019-05-18T04:20:44.617Z,82.80
2019-05-18T04:23:13.835Z,82.00
2019-05-18T04:25:44.067Z,82.20
2019-05-18T04:28:15.011Z,82.00
2019-05-18T04:30:44.192Z,82.00
2019-05-18T04:33:13.347Z,82.00
2019-05-18T04:35:42.479Z,81.90
2019-05-18T04:38:11.626Z,82.00
2019-05-18T04:40:40.826Z,81.80
2019-05-18T04:43:09.988Z,81.90
2019-05-18T04:45:39.101Z,82.00
2019-05-18T04:48:08.272Z,82.00
2019-05-18T04:50:37.618Z,81.80
2019-05-18T04:53:06.747Z,82.00
2019-05-18T04:55:36.587Z,82.10
2019-05-18T04:58:05.716Z,82.00
2019-05-18T05:00:35.339Z,82.10
2019-05-18T05:03:04.475Z,83.00
2019-05-18T05:05:33.625Z,82.10
2019-05-18T05:08:02.808Z,82.10
2019-05-18T05:10:31.932Z,82.10
2019-05-18T05:13:01.076Z,82.10
2019-05-18T05:15:30.227Z,83.30
2019-05-18T05:17:59.367Z,82.20
2019-05-18T05:20:28.522Z,82.30
2019-05-18T05:22:57.669Z,82.30
2019-05-18T05:25:26.819Z,82.50
2019-05-18T05:27:55.985Z,82.20
2019-05-18T05:30:25.132Z,82.30
2019-05-18T05:32:54.284Z,82.30
2019-05-18T05:35:23.571Z,82.30
2019-05-18T05:37:52.722Z,82.30
2019-05-18T05:40:21.868Z,82.20
2019-05-18T05:42:51.016Z,82.40
2019-05-18T05:45:20.161Z,82.30
2019-05-18T05:47:49.307Z,82.30
2019-05-18T05:50:18.485Z,82.10
2019-05-18T05:52:47.627Z,82.10
2019-05-18T05:55:16.849Z,82.20
2019-05-18T05:57:46.000Z,82.40
2019-05-18T06:00:15.135Z,82.30
2019-05-18T06:02:44.284Z,82.30
2019-05-18T06:05:13.434Z,82.30
2019-05-18T06:07:42.578Z,82.30
2019-05-18T06:10:11.730Z,82.30
2019-05-18T06:12:40.916Z,82.30
2019-05-18T06:15:10.399Z,82.30
2019-05-18T06:17:39.547Z,82.20
2019-05-18T06:20:09.071Z,82.00
2019-05-18T06:22:38.212Z,82.30
2019-05-18T06:25:07.891Z,82.10
2019-05-18T06:27:37.352Z,82.10
2019-05-18T06:30:06.833Z,82.00
2019-05-18T06:32:35.995Z,82.20
2019-05-18T06:35:06.059Z,82.40
2019-05-18T06:37:35.214Z,82.40
2019-05-18T06:40:07.127Z,82.10
2019-05-18T06:42:36.278Z,81.60
2019-05-18T06:45:07.329Z,81.90
2019-05-18T06:47:36.479Z,81.60
2019-05-18T06:50:12.115Z,81.50
2019-05-18T06:52:40.107Z,81.60
2019-05-18T06:55:10.020Z,81.40
2019-05-18T06:57:39.236Z,81.10
2019-05-18T07:00:11.362Z,81.30
2019-05-18T07:02:40.507Z,81.20
2019-05-18T07:05:10.238Z,81.30
2019-05-18T07:07:39.387Z,81.20
2019-05-18T07:10:08.528Z,82.00
2019-05-18T07:12:37.737Z,81.10
2019-05-18T07:15:08.961Z,81.00
2019-05-18T07:17:38.149Z,81.10
2019-05-18T07:20:07.416Z,81.10
2019-05-18T07:22:36.595Z,81.00
2019-05-18T07:25:08.632Z,81.10
2019-05-18T07:27:37.786Z,81.10
2019-05-18T07:30:09.282Z,81.00
2019-05-18T07:32:38.484Z,81.10
2019-05-18T07:35:07.636Z,81.30
2019-05-18T07:37:36.898Z,81.30
2019-05-18T07:40:07.580Z,81.30
2019-05-18T07:42:36.722Z,81.40
2019-05-18T07:45:10.369Z,81.30
2019-05-18T07:47:39.525Z,81.40
2019-05-18T07:50:08.671Z,81.20
2019-05-18T07:52:37.849Z,81.20
2019-05-18T07:55:07.328Z,81.30
2019-05-18T07:57:36.500Z,81.50
2019-05-18T08:00:09.042Z,81.40
2019-05-18T08:02:38.192Z,81.50
2019-05-18T08:05:07.908Z,81.40
2019-05-18T08:07:37.185Z,81.50
2019-05-18T08:10:08.338Z,81.30
2019-05-18T08:12:37.472Z,81.40
2019-05-18T08:15:09.018Z,81.30
2019-05-18T08:17:38.190Z,81.30
2019-05-18T08:20:08.299Z,81.30
2019-05-18T08:22:37.452Z,81.30
2019-05-18T08:25:07.760Z,81.10
2019-05-18T08:27:36.910Z,81.00
2019-05-18T08:30:07.596Z,81.00
2019-05-18T08:32:36.758Z,81.10
2019-05-18T08:35:06.905Z,81.30
2019-05-18T08:37:36.116Z,81.10
2019-05-18T08:40:09.525Z,81.00
2019-05-18T08:42:39.341Z,81.00
2019-05-18T08:45:09.401Z,80.80
2019-05-18T08:47:38.558Z,81.00
2019-05-18T08:50:08.598Z,81.10
2019-05-18T08:52:37.700Z,81.10
2019-05-18T08:55:06.973Z,81.30
2019-05-18T08:57:36.128Z,81.60
2019-05-18T09:00:06.312Z,81.10
2019-05-18T09:02:35.455Z,81.90
2019-05-18T09:05:06.147Z,82.00
2019-05-18T09:07:35.316Z,81.90
2019-05-18T09:10:08.501Z,81.90
2019-05-18T09:12:37.630Z,82.20
2019-05-18T09:15:08.538Z,82.10
2019-05-18T09:17:37.762Z,81.70
2019-05-18T09:20:07.804Z,81.40
2019-05-18T09:22:36.952Z,81.50
2019-05-18T09:25:07.606Z,81.70
2019-05-18T09:27:36.752Z,81.70
2019-05-18T09:30:07.531Z,81.90
2019-05-18T09:32:36.892Z,82.00
2019-05-18T09:35:07.731Z,81.90
2019-05-18T09:37:36.881Z,81.70
2019-05-18T09:40:07.700Z,82.60
2019-05-18T09:42:36.848Z,85.40
2019-05-18T09:45:09.098Z,85.80
2019-05-18T09:47:38.312Z,82.60
2019-05-18T09:50:08.091Z,81.70
2019-05-18T09:52:46.178Z,83.60
2019-05-18T09:55:09.939Z,82.40
2019-05-18T09:57:39.094Z,84.60
2019-05-18T10:00:10.540Z,83.70
2019-05-18T10:02:40.016Z,83.10
2019-05-18T10:05:10.004Z,82.50
2019-05-18T10:07:39.356Z,82.60
2019-05-18T10:10:08.830Z,82.60
2019-05-18T10:12:38.793Z,82.80
2019-05-18T10:15:10.060Z,82.80
2019-05-18T10:17:39.226Z,81.50
2019-05-18T10:20:09.341Z,82.00
2019-05-18T10:22:53.407Z,81.60
2019-05-18T10:25:09.717Z,81.90
2019-05-18T10:27:38.843Z,81.30
2019-05-18T10:30:08.242Z,81.60
2019-05-18T10:32:38.015Z,81.40
2019-05-18T10:35:07.698Z,80.50
2019-05-18T10:37:36.914Z,79.60
2019-05-18T10:40:08.369Z,79.40
2019-05-18T10:42:37.514Z,78.30
2019-05-18T10:45:07.654Z,79.30
2019-05-18T10:47:36.839Z,79.80
2019-05-18T10:50:07.120Z,79.40
2019-05-18T10:52:36.268Z,80.80
2019-05-18T10:55:08.739Z,79.80
2019-05-18T10:57:38.190Z,78.30
2019-05-18T11:00:11.880Z,79.10
2019-05-18T11:02:41.217Z,78.40
2019-05-18T11:05:10.356Z,79.10
2019-05-18T11:07:39.505Z,79.90
2019-05-18T11:10:09.253Z,81.10
2019-05-18T11:12:38.465Z,81.10
2019-05-18T11:15:08.149Z,80.60
2019-05-18T11:17:37.274Z,83.10
2019-05-18T11:20:08.625Z,82.00
2019-05-18T11:22:38.001Z,81.80
2019-05-18T11:25:07.950Z,84.20
2019-05-18T11:27:37.082Z,86.00
2019-05-18T11:30:07.960Z,87.00
2019-05-18T11:32:37.737Z,90.50
2019-05-18T11:35:08.012Z,92.10
2019-05-18T11:37:37.192Z,89.70
2019-05-18T11:40:09.094Z,88.70
2019-05-18T11:42:38.243Z,86.10
2019-05-18T11:45:10.488Z,84.00
2019-05-18T11:47:39.759Z,83.50
2019-05-18T11:50:09.401Z,83.80
2019-05-18T11:52:38.563Z,84.70
2019-05-18T11:55:07.743Z,81.20
2019-05-18T11:57:36.889Z,79.30
2019-05-18T12:00:11.732Z,78.40
2019-05-18T12:02:40.892Z,78.20
2019-05-18T12:05:10.044Z,78.50
2019-05-18T12:07:39.319Z,78.40
2019-05-18T12:10:10.262Z,78.60
2019-05-18T12:12:39.417Z,81.10
2019-05-18T12:15:09.883Z,81.90
2019-05-18T12:17:39.016Z,80.20
2019-05-18T12:20:08.161Z,80.50
2019-05-18T12:22:37.301Z,79.50
2019-05-18T12:25:08.751Z,79.30
2019-05-18T12:27:37.977Z,79.70
2019-05-18T12:30:10.991Z,80.20
2019-05-18T12:32:40.218Z,79.80
2019-05-18T12:35:09.440Z,79.60
2019-05-18T12:37:39.022Z,79.40
2019-05-18T12:40:08.249Z,79.80
2019-05-18T12:42:37.393Z,78.50
2019-05-18T12:45:07.107Z,78.80
2019-05-18T12:47:36.246Z,77.50
2019-05-18T12:50:07.903Z,78.10
2019-05-18T12:52:37.052Z,78.10
2019-05-18T12:55:09.087Z,78.30
2019-05-18T12:57:38.240Z,78.50
2019-05-18T13:00:11.397Z,78.30
2019-05-18T13:02:40.556Z,77.90
2019-05-18T13:05:10.175Z,77.50
2019-05-18T13:07:39.308Z,78.30
2019-05-18T13:10:12.066Z,75.20
2019-05-18T13:12:41.232Z,76.60
2019-05-18T13:15:11.569Z,76.70
2019-05-18T13:17:40.728Z,75.80
2019-05-18T13:20:11.500Z,76.40
2019-05-18T13:22:40.635Z,76.00
2019-05-18T13:25:10.035Z,73.60
2019-05-18T13:27:40.148Z,74.80
2019-05-18T13:30:11.741Z,74.90
2019-05-18T13:32:41.039Z,73.50
2019-05-18T13:35:10.142Z,73.00
2019-05-18T13:37:39.288Z,73.20
2019-05-18T13:40:10.184Z,73.10
2019-05-18T13:42:39.319Z,74.50
2019-05-18T13:45:11.557Z,75.60
2019-05-18T13:47:40.688Z,75.20
2019-05-18T13:50:09.856Z,74.80
2019-05-18T13:52:38.995Z,75.60
2019-05-18T13:55:08.192Z,75.20
2019-05-18T13:57:37.336Z,75.20
2019-05-18T14:00:09.727Z,74.90
2019-05-18T14:02:38.876Z,75.80
2019-05-18T14:05:08.627Z,74.10
2019-05-18T14:07:37.761Z,74.40
2019-05-18T14:10:07.965Z,76.60
2019-05-18T14:12:37.120Z,80.40
2019-05-18T14:15:07.626Z,81.50
2019-05-18T14:17:36.760Z,84.50
2019-05-18T14:20:06.317Z,89.60
2019-05-18T14:22:35.461Z,89.70
2019-05-18T14:25:18.822Z,90.70
2019-05-18T14:27:37.593Z,90.00
2019-05-18T14:30:07.550Z,89.30
2019-05-18T14:32:36.676Z,89.70
2019-05-18T14:35:09.487Z,90.00
2019-05-18T14:37:38.596Z,89.50
2019-05-18T14:40:08.698Z,88.60
2019-05-18T14:42:37.897Z,87.90
2019-05-18T14:45:08.871Z,87.80
2019-05-18T14:47:37.998Z,88.00
2019-05-18T14:50:08.718Z,88.70
2019-05-18T14:52:37.958Z,89.10
2019-05-18T14:55:07.573Z,87.10
2019-05-18T14:57:36.717Z,88.60
2019-05-18T15:00:07.653Z,87.90
2019-05-18T15:02:36.826Z,85.80
2019-05-18T15:05:08.923Z,85.70
2019-05-18T15:07:38.054Z,86.50
2019-05-18T15:10:08.828Z,84.20
2019-05-18T15:12:38.447Z,83.80
2019-05-18T15:15:08.577Z,86.00
2019-05-18T15:17:37.705Z,86.90
2019-05-18T15:20:08.878Z,88.10
2019-05-18T15:22:38.024Z,89.60
2019-05-18T15:25:07.748Z,87.30
2019-05-18T15:27:36.992Z,87.90
2019-05-18T15:30:09.392Z,88.20
2019-05-18T15:32:38.543Z,89.30
2019-05-18T15:35:08.321Z,89.10
2019-05-18T15:37:38.917Z,88.70
2019-05-18T15:40:08.185Z,88.10
2019-05-18T15:42:37.373Z,87.60
2019-05-18T15:45:08.159Z,86.90
2019-05-18T15:47:37.313Z,86.90
2019-05-18T15:50:09.191Z,86.70
2019-05-18T15:52:38.346Z,86.10
2019-05-18T15:55:08.742Z,86.00
2019-05-18T15:57:37.909Z,82.10
2019-05-18T16:00:08.658Z,83.20
2019-05-18T16:02:38.258Z,85.00
2019-05-18T16:05:08.460Z,85.20
2019-05-18T16:07:37.598Z,86.70
2019-05-18T16:10:08.493Z,86.20
2019-05-18T16:12:37.630Z,86.40
2019-05-18T16:15:09.369Z,85.90
2019-05-18T16:17:40.138Z,86.60
2019-05-18T16:20:09.854Z,86.90
2019-05-18T16:22:38.993Z,86.20
2019-05-18T16:25:08.350Z,85.60
2019-05-18T16:27:37.579Z,86.80
2019-05-18T16:30:08.477Z,88.40
2019-05-18T16:32:37.621Z,88.80
2019-05-18T16:35:10.510Z,88.80
2019-05-18T16:37:39.799Z,88.90
2019-05-18T16:40:08.983Z,88.90
2019-05-18T16:42:38.289Z,88.50
2019-05-18T16:45:08.012Z,87.80
2019-05-18T16:47:37.181Z,87.70
2019-05-18T16:50:06.955Z,88.50
2019-05-18T16:52:36.091Z,87.80
2019-05-18T16:55:07.531Z,88.10
2019-05-18T16:57:36.684Z,88.80
2019-05-18T17:00:16.021Z,88.60
2019-05-18T17:02:43.992Z,88.60
2019-05-18T17:05:13.210Z,89.00
2019-05-18T17:07:42.360Z,89.20
2019-05-18T17:10:12.366Z,89.80
2019-05-18T17:12:41.506Z,89.30
2019-05-18T17:15:10.634Z,89.30
2019-05-18T17:17:39.780Z,89.40
2019-05-18T17:20:09.034Z,89.60
2019-05-18T17:22:38.194Z,89.90
2019-05-18T17:25:08.173Z,90.00
2019-05-18T17:27:37.302Z,90.20
2019-05-18T17:30:07.694Z,90.20
2019-05-18T17:32:36.837Z,90.30
2019-05-18T17:35:09.742Z,90.30
2019-05-18T17:37:38.866Z,90.50
2019-05-18T17:40:08.073Z,90.50
2019-05-18T17:42:37.215Z,90.80
2019-05-18T17:45:08.400Z,90.80
2019-05-18T17:47:37.535Z,91.20
2019-05-18T17:50:08.516Z,90.90
2019-05-18T17:52:37.857Z,90.90
2019-05-18T17:55:07.484Z,90.80
2019-05-18T17:57:36.697Z,90.90
2019-05-18T18:00:09.785Z,91.10
2019-05-18T18:02:38.927Z,91.50
2019-05-18T18:05:08.334Z,91.90
2019-05-18T18:07:37.477Z,91.60
2019-05-18T18:10:06.954Z,91.90
2019-05-18T18:12:36.126Z,91.80
2019-05-18T18:15:07.368Z,92.10
2019-05-18T18:17:36.521Z,92.50
2019-05-18T18:20:06.993Z,92.40
2019-05-18T18:22:36.127Z,92.20
2019-05-18T18:25:07.083Z,92.30
2019-05-18T18:27:36.260Z,92.80
2019-05-18T18:30:08.742Z,92.80
2019-05-18T18:32:38.022Z,92.90
2019-05-18T18:35:07.163Z,93.00
2019-05-18T18:37:36.342Z,93.00
2019-05-18T18:40:06.530Z,93.10
2019-05-18T18:42:35.685Z,93.40
2019-05-18T18:45:07.930Z,93.60
2019-05-18T18:47:37.084Z,93.50
2019-05-18T18:50:07.842Z,93.40
2019-05-18T18:52:37.193Z,93.70
2019-05-18T18:55:07.951Z,93.60
2019-05-18T18:57:41.213Z,93.70
2019-05-18T19:00:08.105Z,93.50
2019-05-18T19:02:37.313Z,93.30
2019-05-18T19:05:07.178Z,93.60
2019-05-18T19:07:36.492Z,93.80
2019-05-18T19:10:06.194Z,93.30
2019-05-18T19:12:36.103Z,93.10
2019-05-18T19:15:08.769Z,93.20
2019-05-18T19:17:37.903Z,93.20
2019-05-18T19:20:07.344Z,93.10
2019-05-18T19:22:36.471Z,92.60
2019-05-18T19:25:05.946Z,92.40
2019-05-18T19:27:35.084Z,92.30
2019-05-18T19:30:09.791Z,92.00
2019-05-18T19:32:37.699Z,91.50
2019-05-18T19:35:10.202Z,91.70
2019-05-18T19:37:39.326Z,91.40
2019-05-18T19:40:09.373Z,91.50
2019-05-18T19:42:38.511Z,91.50
2019-05-18T19:45:11.373Z,91.70
2019-05-18T19:47:40.522Z,91.40
2019-05-18T19:50:09.668Z,91.50
2019-05-18T19:52:38.926Z,91.00
2019-05-18T19:55:08.077Z,91.00
2019-05-18T19:57:37.203Z,90.90
2019-05-18T20:00:07.654Z,90.90
2019-05-18T20:02:36.926Z,90.70
2019-05-18T20:05:09.200Z,91.10
2019-05-18T20:07:38.666Z,91.00
2019-05-18T20:10:10.799Z,90.80
2019-05-18T20:12:39.950Z,90.80
2019-05-18T20:15:10.317Z,90.40
2019-05-18T20:17:39.458Z,90.40
2019-05-18T20:20:08.872Z,90.60
2019-05-18T20:22:38.050Z,90.60
2019-05-18T20:25:07.200Z,91.10
2019-05-18T20:27:36.344Z,90.90
2019-05-18T20:30:07.341Z,91.00
2019-05-18T20:32:36.683Z,91.30
2019-05-18T20:35:06.766Z,91.10
2019-05-18T20:37:35.948Z,91.30
2019-05-18T20:40:06.431Z,91.40
2019-05-18T20:42:37.629Z,91.50
2019-05-18T20:45:06.784Z,91.20
2019-05-18T20:47:36.014Z,91.40
2019-05-18T20:50:06.743Z,91.20
2019-05-18T20:52:35.952Z,91.80
2019-05-18T20:55:05.653Z,91.40
2019-05-18T20:57:35.527Z,91.30
2019-05-18T21:00:06.095Z,91.50
2019-05-18T21:02:35.291Z,91.50
2019-05-18T21:05:06.301Z,91.90
2019-05-18T21:07:35.516Z,92.00
2019-05-18T21:10:06.671Z,91.90
2019-05-18T21:12:35.814Z,91.90
2019-05-18T21:15:07.385Z,91.90
2019-05-18T21:17:36.620Z,91.90
2019-05-18T21:20:06.973Z,91.90
2019-05-18T21:22:36.175Z,92.00
2019-05-18T21:25:06.527Z,92.10
2019-05-18T21:27:35.737Z,92.10
2019-05-18T21:30:06.590Z,92.30
2019-05-18T21:32:35.728Z,92.40
2019-05-18T21:35:07.304Z,92.30
2019-05-18T21:37:37.508Z,92.40
2019-05-18T21:40:07.480Z,92.40
2019-05-18T21:42:36.847Z,92.40
2019-05-18T21:45:07.322Z,92.40
2019-05-18T21:47:36.664Z,92.30
2019-05-18T21:50:08.743Z,92.30
2019-05-18T21:52:37.879Z,92.20
2019-05-18T21:55:08.674Z,92.30
2019-05-18T21:57:37.808Z,92.30
2019-05-18T22:00:06.949Z,92.30
2019-05-18T22:02:36.090Z,92.50
2019-05-18T22:06:02.915Z,92.30
2019-05-18T22:08:32.074Z,91.30
2019-05-18T22:11:01.591Z,90.60
2019-05-18T22:13:30.857Z,90.30
2019-05-18T22:16:00.144Z,90.40
2019-05-18T22:18:29.371Z,90.50
2019-05-18T22:20:58.554Z,90.00
2019-05-18T22:23:27.799Z,90.00
2019-05-18T22:25:57.332Z,90.00
2019-05-18T22:28:26.718Z,89.90
2019-05-18T22:30:55.903Z,89.50
2019-05-18T22:33:25.068Z,89.50
2019-05-18T22:35:54.213Z,89.40
2019-05-18T22:38:23.352Z,89.30
2019-05-18T22:40:52.525Z,89.00
2019-05-18T22:43:22.613Z,88.90
2019-05-18T22:45:51.801Z,88.70
2019-05-18T22:48:20.989Z,87.80
2019-05-18T22:50:50.323Z,87.60
2019-05-18T22:53:19.502Z,87.60
2019-05-18T22:55:48.733Z,87.20
2019-05-18T22:58:17.904Z,87.10
2019-05-18T23:00:47.050Z,87.00
2019-05-18T23:03:16.185Z,86.80
2019-05-18T23:05:45.366Z,86.60
2019-05-18T23:08:14.548Z,86.70
2019-05-18T23:10:43.834Z,86.50
2019-05-18T23:13:13.038Z,86.60
2019-05-18T23:15:42.178Z,86.40
2019-05-18T23:18:11.975Z,86.00
2019-05-18T23:20:41.264Z,85.80
2019-05-18T23:23:10.402Z,85.60
2019-05-18T23:25:39.593Z,85.60
2019-05-18T23:28:09.495Z,85.70
2019-05-18T23:30:38.673Z,85.50
2019-05-18T23:33:07.851Z,85.50
2019-05-18T23:35:36.988Z,85.50
2019-05-18T23:38:06.192Z,85.10
2019-05-18T23:40:35.346Z,84.80
2019-05-18T23:43:04.890Z,84.90
2019-05-18T23:45:34.032Z,84.60
2019-05-18T23:48:03.692Z,84.50
2019-05-18T23:50:32.868Z,84.70
2019-05-18T23:53:02.151Z,84.50
2019-05-18T23:55:31.374Z,84.70
2019-05-18T23:58:05.584Z,84.50
